• Join FlightAware (Why Join?)
  • Login
  • US Flag 
Rudolph Flight #1: Scheduled 
08:14PM EST


 

Airport Tracker/Info


-or-


 

Live Flight TrackerFlight Track Log ✈ UAL270 ✈ 29-Jun-2013 ✈ KIAH - CYYC

Flight Track Log - Related Links

Times and Time Zones

All times are in EDT time to prevent confusion due to time zone crossing. See the UAL270 flight status page for this flight to view local times or setup timezone preferences in your user account.

Time Position Orientation Groundspeed Altitude Reporting Facility
EDT Latitude Longitude Course Direction KTS MPH feet Rate Location/Type
02:36PM 29.9931 -95.3664 335° Northwest 186 214 1,000  Level Houston Center
02:38PM 30.0508 -95.3886 342° North 211 243 1,900 1,260 Climbing Houston Center
02:39PM 30.2776 -95.5047 332° Northwest  Level FlightAware Approximate
02:39PM 30.1144 -95.3978 353° North 225 259 3,900  Level Houston Center
02:40PM 30.3758 -95.5643 334° Northwest  Level FlightAware Approximate
02:40PM 30.1867 -95.4089 352° North 252 290 4,400  Level Houston Center
02:41PM 30.4758 -95.6199 334° Northwest  Level FlightAware Approximate
02:41PM 30.2558 -95.4378 340° North 266 306 6,900  Level Houston Center
02:42PM 30.5765 -95.6735 335° Northwest  Level FlightAware Approximate
02:42PM 30.3172 -95.4875 325° Northwest 271 312 9,600  Level Houston Center
02:43PM 30.3989 -95.5481 327° Northwest 286 329 11,300 1,800 Climbing Houston Center
02:44PM 30.4781 -95.6078 327° Northwest 333 383 13,400 1,920 Climbing Houston Center
02:45PM 30.5581 -95.6658 328° Northwest 341 392 15,300 1,740 Climbing Houston Center
02:46PM 30.6481 -95.7117 336° Northwest 351 404 17,100 1,740 Climbing Houston Center
02:47PM 30.7525 -95.7686 335° Northwest 368 423 18,900 1,680 Climbing Houston Center
02:48PM 30.8492 -95.8194 336° Northwest 376 433 20,600 1,380 Climbing Houston Center
02:49PM 30.9475 -95.8728 335° Northwest 386 444 21,800 1,320 Climbing Houston Center
02:50PM 31.0478 -95.9264 335° Northwest 394 453 23,400 1,380 Climbing Houston Center
02:51PM 31.1494 -95.9772 337° Northwest 394 453 24,700 960 Climbing Houston Center
02:52PM 31.2558 -96.0189 341° North 399 459 25,500 840 Climbing Houston Center
02:53PM 31.3667 -96.0608 342° North 412 474 26,500 960 Climbing Houston Center
02:54PM 31.4903 -96.1086 342° North 416 479 27,600 900 Climbing Houston Center
02:55PM 31.6033 -96.1525 342° North 423 487 28,400 720 Climbing Houston Center
02:56PM 31.7086 -96.1947 341° North 425 489 29,000 720 Climbing Fort Worth Center
02:57PM 31.8281 -96.2422 341° North 437 503 29,800 1,020 Climbing Fort Worth Center
02:58PM 31.9286 -96.2825 341° North 431 496 31,100 1,320 Climbing Fort Worth Center
02:59PM 32.0417 -96.3275 341° North 426 490 32,500 1,020 Climbing Fort Worth Center
03:00PM 32.1528 -96.3778 339° North 426 490 33,200 660 Climbing Fort Worth Center
03:01PM 32.2514 -96.4553 326° Northwest 419 482 33,900 360 Climbing Fort Worth Center
03:02PM 32.3356 -96.5503 316° Northwest 419 482 34,000  Climbing Fort Worth Center
03:03PM 32.4219 -96.6456 317° Northwest 419 482 34,000  Level Fort Worth Center
03:04PM 32.5058 -96.7433 316° Northwest 419 482 34,000  Level Fort Worth Center
03:05PM 32.5942 -96.8414 317° Northwest 424 488 34,000  Level Fort Worth Center
03:06PM 32.6781 -96.9394 315° West 424 488 34,000  Level Fort Worth Center
03:07PM 32.7639 -97.0353 317° Northwest 429 494 34,000  Level Fort Worth Center
03:08PM 32.8603 -97.1439 317° Northwest 429 494 34,000  Level Fort Worth Center
03:09PM 32.9356 -97.2353 314° West 429 494 34,000  Level Fort Worth Center
03:10PM 33.0294 -97.3564 313° West 441 507 34,000  Level Fort Worth Center
03:11PM 33.1089 -97.4581 313° West 446 513 34,000  Level Fort Worth Center
03:12PM 33.1903 -97.5600 314° West 433 498 34,000 -60 Level Fort Worth Center
03:13PM 33.2672 -97.6594 313° West 422 486 33,900  Descending Fort Worth Center
03:14PM 33.3483 -97.7617 314° West 422 486 34,000  Climbing Fort Worth Center
03:15PM 33.4294 -97.8664 313° West 422 486 34,000  Level Fort Worth Center
03:16PM 33.5083 -97.9689 313° West 422 486 34,000  Level Fort Worth Center
03:17PM 33.5914 -98.0644 316° Northwest 422 486 34,000  Level Fort Worth Center
03:18PM 33.6892 -98.1400 327° Northwest 417 480 34,000  Level Fort Worth Center
03:19PM 33.7867 -98.2183 326° Northwest 417 480 34,000  Level Fort Worth Center
03:20PM 33.8822 -98.2942 327° Northwest 412 474 34,000  Level Fort Worth Center
03:21PM 33.9797 -98.3728 326° Northwest 418 481 34,000  Level Fort Worth Center
03:22PM 34.0750 -98.4492 326° Northwest 418 481 34,000  Level Fort Worth Center
03:23PM 34.1683 -98.5256 326° Northwest 418 481 34,000 180 Level Fort Worth Center
03:24PM 34.2656 -98.6072 325° Northwest 418 481 34,400 900 Climbing Fort Worth Center
03:25PM 34.3589 -98.6814 327° Northwest 413 475 35,900 780 Climbing Fort Worth Center
03:26PM 34.4561 -98.7558 328° Northwest 408 470 36,000  Climbing Fort Worth Center
03:27PM 34.5514 -98.8331 326° Northwest 408 470 36,000  Level Fort Worth Center
03:28PM 34.6464 -98.9028 329° Northwest 414 476 36,000  Level Fort Worth Center
03:29PM 34.7436 -98.9803 327° Northwest 409 471 36,000  Level Fort Worth Center
03:30PM 34.8364 -99.0606 325° Northwest 409 471 36,000  Level Fort Worth Center
03:31PM 34.9333 -99.1333 328° Northwest 414 476 36,000  Level Fort Worth Center
03:32PM 35.0303 -99.2139 326° Northwest 414 476 36,000  Level Fort Worth Center
03:33PM 35.1231 -99.2919 325° Northwest 414 476 36,000  Level Fort Worth Center
03:34PM 35.2200 -99.3678 327° Northwest 414 476 36,000  Level Fort Worth Center
03:35PM 35.3186 -99.4489 326° Northwest 420 483 36,000  Level Fort Worth Center
03:36PM 35.4050 -99.5197 326° Northwest 420 483 36,000  Level Fort Worth Center
03:37PM 35.5017 -99.6014 325° Northwest 420 483 36,000  Level Fort Worth Center
03:39PM 35.6511 -99.7208 327° Northwest 413 475 36,000  Level Kansas City Center
03:40PM 35.7481 -99.8025 326° Northwest 416 479 36,000  Level Kansas City Center
03:41PM 35.8461 -99.8819 327° Northwest 418 481 36,000  Level Kansas City Center
03:42PM 35.9444 -99.9644 326° Northwest 421 484 36,000  Level Kansas City Center
03:43PM 36.0606 -100.0619 326° Northwest 420 483 36,000  Level Kansas City Center
03:44PM 36.1589 -100.1436 326° Northwest 421 484 36,000  Level Kansas City Center
03:45PM 36.2558 -100.2247 326° Northwest 419 482 36,000  Level Kansas City Center
03:46PM 36.3519 -100.3061 326° Northwest 417 480 36,000  Level Kansas City Center
03:47PM 36.4483 -100.3872 326° Northwest 417 480 36,000  Level Kansas City Center
03:48PM 36.5461 -100.4706 326° Northwest 414 476 36,000  Level Kansas City Center
03:49PM 36.6506 -100.5606 325° Northwest 409 471 36,000  Level Kansas City Center
03:50PM 36.7406 -100.6367 326° Northwest 409 471 36,000  Level Kansas City Center
03:51PM 36.8283 -100.7133 325° Northwest 403 464 36,000  Level Kansas City Center
03:52PM 36.9319 -100.8019 326° Northwest 403 464 36,000  Level Kansas City Center
03:53PM 37.0206 -100.8775 326° Northwest 402 463 36,000  Level Kansas City Center
03:54PM 37.1228 -100.9669 325° Northwest 401 461 36,000  Level Kansas City Center
03:55PM 37.2119 -101.0439 326° Northwest 403 464 36,000  Level Kansas City Center
03:56PM 37.3003 -101.1225 325° Northwest 404 465 36,000  Level Kansas City Center
03:57PM 37.4050 -101.2139 325° Northwest 406 467 36,000  Level Kansas City Center
03:58PM 37.4933 -101.2906 325° Northwest 401 461 36,000  Level Kansas City Center
03:59PM 37.5969 -101.3822 325° Northwest 402 463 36,000  Level Kansas City Center
04:00PM 37.6856 -101.4600 325° Northwest 404 465 36,000  Level Kansas City Center
04:01PM 37.7742 -101.5383 325° Northwest 405 466 36,000  Level Kansas City Center
04:02PM 37.8772 -101.6292 325° Northwest 403 464 36,000  Level Kansas City Center
04:03PM 37.9650 -101.7078 325° Northwest 403 464 36,000  Level Kansas City Center
04:04PM 38.0536 -101.7856 325° Northwest 405 466 36,000  Level Denver Center
04:05PM 38.1414 -101.8647 325° Northwest 403 464 36,000  Level Denver Center
04:06PM 38.2439 -101.9553 325° Northwest 403 464 36,000  Level Denver Center
04:07PM 38.3300 -102.0353 324° Northwest 401 461 36,000  Level Denver Center
04:08PM 38.4181 -102.1139 325° Northwest 403 464 36,000  Level Denver Center
04:09PM 38.5203 -102.2053 325° Northwest 402 463 36,000  Level Denver Center
04:11PM 38.6381 -102.3122 325° Northwest 406 467 36,000  Level Denver Center
04:12PM 38.7253 -102.3928 324° Northwest 404 465 36,000  Level Denver Center
04:13PM 38.8133 -102.4733 325° Northwest 405 466 36,000  Level Denver Center
04:14PM 38.9003 -102.5544 324° Northwest 405 466 36,000  Level Denver Center
04:15PM 38.9886 -102.6350 325° Northwest 407 468 36,000  Level Denver Center
04:16PM 39.1094 -102.7481 324° Northwest 407 468 36,000  Level Denver Center
04:17PM 39.2017 -102.8331 324° Northwest 406 467 36,000  Level Denver Center
04:18PM 39.2933 -102.9169 325° Northwest 405 466 36,000  Level Denver Center
04:19PM 39.3847 -103.0028 324° Northwest 407 468 36,000  Level Denver Center
04:20PM 39.4764 -103.0894 324° Northwest 409 471 36,000  Level Denver Center
04:21PM 39.5681 -103.1747 324° Northwest 409 471 36,000  Level Denver Center
04:22PM 39.6586 -103.2608 324° Northwest 405 466 36,000  Level Denver Center
04:23PM 39.7647 -103.3608 324° Northwest 397 457 36,000  Level Denver Center
04:24PM 39.8508 -103.4436 324° Northwest 388 447 36,000  Level Denver Center
04:25PM 39.9397 -103.5292 324° Northwest 396 456 36,000  Level Denver Center
04:26PM 40.0286 -103.6133 324° Northwest 398 458 36,000  Level Denver Center
04:27PM 40.1000 -103.6819 324° Northwest 399 459 36,000  Level Denver Center
04:28PM 40.2253 -103.8028 324° Northwest 404 465 36,000  Level Denver Center
04:29PM 40.3144 -103.8881 324° Northwest 400 460 36,000  Level Denver Center
04:30PM 40.4064 -103.9764 324° Northwest 410 472 36,000  Level Denver Center
04:31PM 40.4961 -104.0650 323° Northwest 406 467 36,000  Level Denver Center
04:32PM 40.5881 -104.1542 324° Northwest 412 474 36,000  Level Denver Center
04:33PM 40.6792 -104.2433 323° Northwest 412 474 36,000  Level Denver Center
04:34PM 40.7869 -104.3519 323° Northwest 409 471 36,000  Level Denver Center
04:35PM 40.8789 -104.4425 323° Northwest 414 476 36,000  Level Denver Center
04:36PM 40.9708 -104.5331 323° Northwest 414 476 36,000  Level Denver Center
04:37PM 41.0711 -104.6319 323° Northwest 406 467 36,000  Level Denver Center
04:38PM 41.1597 -104.7197 323° Northwest 412 474 36,000  Level Denver Center
04:39PM 41.2497 -104.8047 325° Northwest 415 478 36,000  Level Denver Center
04:40PM 41.3611 -104.8883 331° Northwest 414 476 36,000  Level Denver Center
04:41PM 41.4569 -104.9631 330° Northwest 415 478 36,000  Level Denver Center
04:42PM 41.5689 -105.0511 330° Northwest 418 481 36,000  Level Denver Center
04:44PM 41.6486 -105.1153 329° Northwest 417 480 36,000  Level Denver Center
04:45PM 41.7750 -105.2156 329° Northwest 413 475 36,000  Level Denver Center
04:46PM 41.8689 -105.2892 330° Northwest 410 472 36,000  Level Denver Center
04:47PM 41.9636 -105.3639 330° Northwest 410 472 36,000  Level Denver Center
04:48PM 42.0753 -105.4522 330° Northwest 416 479 36,000  Level Denver Center
04:49PM 42.1697 -105.5281 329° Northwest 413 475 36,000  Level Denver Center
04:50PM 42.2814 -105.6167 330° Northwest 415 478 36,000  Level Denver Center
04:51PM 42.3747 -105.6928 329° Northwest 410 472 36,000  Level Denver Center
04:52PM 42.4844 -105.7814 329° Northwest 410 472 36,000  Level Denver Center
04:53PM 42.5811 -105.8586 330° Northwest 418 481 36,000  Level Denver Center
04:54PM 42.6747 -105.9342 329° Northwest 410 472 36,000  Level Denver Center
04:55PM 42.7839 -106.0242 329° Northwest 411 473 36,000  Level Denver Center
04:56PM 42.8764 -106.0997 329° Northwest 407 468 36,000  Level Denver Center
04:57PM 42.9872 -106.1906 329° Northwest 413 475 36,000  Level Denver Center
04:58PM 43.0817 -106.2678 329° Northwest 413 475 36,000  Level Denver Center
04:59PM 43.1917 -106.3594 329° Northwest 414 476 36,000  Level Denver Center
05:00PM 43.2864 -106.4369 329° Northwest 415 478 36,000  Level Denver Center
05:01PM 43.3958 -106.5258 329° Northwest 412 474 36,000  Level Denver Center
05:02PM 43.5047 -106.6183 328° Northwest 410 472 36,000  Level Denver Center
05:03PM 43.6139 -106.7089 329° Northwest 411 473 36,000  Level Denver Center
05:04PM 43.7067 -106.7889 328° Northwest 411 473 36,000  Level Denver Center
05:05PM 43.8169 -106.8800 329° Northwest 412 474 36,000  Level Denver Center
05:06PM 43.9108 -106.9594 329° Northwest 412 474 36,000  Level Denver Center
05:07PM 44.0225 -107.0519 329° Northwest 417 480 36,000  Level Denver Center
05:08PM 44.1178 -107.1336 328° Northwest 419 482 36,000  Level Denver Center
05:09PM 44.1975 -107.2025 328° Northwest 419 482 36,000  Level Salt Lake Center
05:10PM 44.2906 -107.2828 328° Northwest 413 475 36,000 -60 Level Salt Lake Center
05:11PM 44.4003 -107.3758 329° Northwest 412 474 35,900  Descending Salt Lake Center
05:12PM 44.4953 -107.4569 329° Northwest 417 480 36,000  Climbing Salt Lake Center
05:13PM 44.6050 -107.5525 328° Northwest 421 484 36,000  Level Salt Lake Center
05:14PM 44.6992 -107.6353 328° Northwest 419 482 36,000  Level Salt Lake Center
05:15PM 44.8097 -107.7314 328° Northwest 418 481 36,000  Level Salt Lake Center
05:16PM 44.9056 -107.8133 329° Northwest 420 483 36,000  Level Salt Lake Center
05:18PM 45.0144 -107.9117 327° Northwest 418 481 36,000  Level Salt Lake Center
05:19PM 45.1136 -107.9997 328° Northwest 414 476 36,000  Level Salt Lake Center
05:20PM 45.2114 -108.0858 328° Northwest 418 481 36,000  Level Salt Lake Center
05:21PM 45.3167 -108.1803 328° Northwest 418 481 36,000  Level Salt Lake Center
05:22PM 45.4128 -108.2658 328° Northwest 413 475 36,000  Level Salt Lake Center
05:23PM 45.5172 -108.3608 327° Northwest 414 476 36,000  Level Salt Lake Center
05:24PM 45.6128 -108.4475 328° Northwest 411 473 36,000  Level Salt Lake Center
05:25PM 45.7161 -108.5442 327° Northwest 410 472 36,000  Level Salt Lake Center
05:26PM 45.8064 -108.6231 329° Northwest 416 479 36,000  Level Salt Lake Center
05:27PM 45.9317 -108.7250 331° Northwest 428 493 36,000  Level Salt Lake Center
05:28PM 46.0303 -108.8042 331° Northwest 414 476 36,000  Level Salt Lake Center
05:29PM 46.1381 -108.8908 331° Northwest 418 481 36,000  Level Salt Lake Center
05:30PM 46.2381 -108.9722 331° Northwest 416 479 36,000  Level Salt Lake Center
05:31PM 46.3467 -109.0628 330° Northwest 419 482 36,000  Level Salt Lake Center
05:32PM 46.4472 -109.1433 331° Northwest 416 479 36,000  Level Salt Lake Center
05:33PM 46.5550 -109.2322 330° Northwest 417 480 36,000  Level Salt Lake Center
05:34PM 46.6533 -109.3150 330° Northwest 415 478 36,000 -60 Level Salt Lake Center
05:35PM 46.7508 -109.3994 329° Northwest 415 478 35,900  Descending Salt Lake Center
05:36PM 46.8522 -109.4828 331° Northwest 417 480 36,000  Climbing Salt Lake Center
05:38PM 46.9862 -109.5957 330° Northwest  Level FlightAware Approximate
05:38PM 47.0539 -109.6542 330° Northwest 420 483 36,000  Level Salt Lake Center
05:39PM 47.1756 -109.7564 330° Northwest 422 486 36,000 -60 Level Salt Lake Center
05:40PM 47.2761 -109.8428 330° Northwest 421 484 35,900 -60 Descending Salt Lake Center
05:41PM 47.3764 -109.9292 330° Northwest 419 482 35,900  Level Salt Lake Center
05:42PM 47.4764 -110.0139 330° Northwest 418 481 36,000  Climbing Salt Lake Center
05:43PM 47.5758 -110.1006 330° Northwest 416 479 35,900 -60 Descending Salt Lake Center
05:44PM 47.6969 -110.2047 330° Northwest 421 484 35,900  Level Salt Lake Center
05:45PM 47.7992 -110.2925 330° Northwest 427 491 35,900  Level Salt Lake Center
05:46PM 47.8992 -110.3817 329° Northwest 423 487 35,900  Level Salt Lake Center
05:48PM 48.0008 -110.4717 329° Northwest 425 489 36,000  Climbing Salt Lake Center
05:49PM 48.1036 -110.5622 330° Northwest 431 496 36,000  Level Salt Lake Center
05:50PM 48.2250 -110.6706 329° Northwest 428 493 36,000 -60 Level Salt Lake Center
05:51PM 48.3261 -110.7611 329° Northwest 427 491 35,900 -60 Descending Salt Lake Center
05:52PM 48.4267 -110.8522 329° Northwest 424 488 35,900  Level Salt Lake Center
05:53PM 48.5275 -110.9425 329° Northwest 425 489 35,900  Level Salt Lake Center
05:54PM 48.6294 -111.0353 329° Northwest 428 493 35,900  Level Salt Lake Center
05:55PM 48.7303 -111.1272 329° Northwest 426 490 35,900  Level Salt Lake Center
05:56PM 48.8514 -111.2375 329° Northwest 426 490 35,900  Level Salt Lake Center
05:57PM 48.9517 -111.3308 329° Northwest 425 489 35,900  Level Salt Lake Center
05:58PM 49.0333 -111.4667 313° West 420 483 36,000  Climbing Edmonton Center
05:59PM 49.1500 -111.5500 335° Northwest 430 495 36,000  Level Edmonton Center
06:00PM 49.2500 -111.6500 327° Northwest 430 495 36,000  Level Edmonton Center
06:01PM 49.3333 -111.7333 327° Northwest 430 495 36,000  Level Edmonton Center
06:02PM 49.4500 -111.8333 331° Northwest 430 495 36,000  Level Edmonton Center
06:03PM 49.5500 -111.9333 327° Northwest 430 495 36,000  Level Edmonton Center
06:04PM 49.6333 -112.0667 314° West 420 483 36,000  Level Edmonton Center
06:05PM 49.7333 -112.1667 327° Northwest 430 495 36,000  Level Edmonton Center
06:06PM 49.8167 -112.2833 318° Northwest 430 495 36,000 -360 Level Edmonton Center
06:07PM 49.9167 -112.4000 323° Northwest 430 495 35,300 -1,440 Descending Edmonton Center
06:08PM 50.0000 -112.5167 318° Northwest 430 495 33,200 -2,280 Descending Edmonton Center
06:09PM 50.1000 -112.6500 319° Northwest 430 495 30,800 -2,280 Descending Edmonton Center
06:10PM 50.1833 -112.7667 318° Northwest 420 483 28,700 -2,220 Descending Edmonton Center
06:11PM 50.2833 -112.8833 323° Northwest 420 483 26,400 -2,160 Descending Edmonton Center
06:12PM 50.3667 -112.9833 323° Northwest 410 472 24,400 -2,100 Descending Edmonton Center
06:13PM 50.4667 -113.1000 323° Northwest 400 460 22,200 -2,100 Descending Edmonton Center
06:14PM 50.5333 -113.2333 308° West 400 460 20,200 -2,040 Descending Edmonton Center
06:15PM 50.6167 -113.3167 328° Northwest 380 437 18,200 -1,800 Descending Edmonton Center
06:16PM 50.7000 -113.4500 315° West 370 426 16,600 -1,680 Descending Edmonton Center
06:17PM 50.7667 -113.5333 322° Northwest 350 403 14,900 -1,800 Descending Edmonton Center
06:18PM 50.8500 -113.6667 315° West 340 391 13,000 -1,800 Descending Edmonton Center
06:19PM 50.9000 -113.7500 314° West 330 380 11,300 -1,440 Descending Edmonton Center
06:20PM 50.9667 -113.8500 317° Northwest 310 357 10,200 -660 Descending Edmonton Center
06:21PM 51.0500 -113.8833 346° North 300 345 10,000 -900 Descending Edmonton Center
06:22PM 51.1333 -113.9000 353° North 290 334 8,400 -1,860 Descending Edmonton Center
06:23PM 51.2000 -113.9000 360° North 280 322 6,300 -2,100 Descending Edmonton Center